Time;durP1;ratioP1;P1;durP2;ratioP2;P2;SDS_P1;SDS_P2;PMS_P1;PMS_P2;Temp;Humidity;BMP_temperature;BMP_pressure;BME280_temperature;BME280_humidity;BME280_pressure;Samples;Min_cycle;Max_cycle;Signal;HPM_P1;HPM_P2
2023/07/22 00:02:12;;;;;;;2.72;1.67;;;18.20;92.80;;;;;;10503589;28;20222;-82
2023/07/22 00:07:15;;;;;;;1.70;1.30;;;18.10;92.90;;;;;;10513371;28;20233;-82
2023/07/22 00:12:17;;;;;;;1.85;1.42;;;17.90;93.20;;;;;;10502164;28;20291;-83
2023/07/22 00:17:24;;;;;;;1.55;1.00;;;17.60;93.70;;;;;;10501008;28;20261;-83
2023/07/22 00:22:27;;;;;;;1.10;0.70;;;17.70;93.60;;;;;;10502170;28;20249;-82
2023/07/22 00:27:29;;;;;;;1.45;0.85;;;17.70;93.70;;;;;;10490080;28;20226;-82
2023/07/22 00:32:32;;;;;;;1.05;0.90;;;17.80;93.30;;;;;;10498154;28;20575;-82
2023/07/22 00:37:35;;;;;;;3.22;1.42;;;18.00;93.10;;;;;;10482456;28;20258;-82
2023/07/22 00:42:39;;;;;;;2.10;1.60;;;18.00;93.10;;;;;;10512686;28;20225;-82
2023/07/22 00:47:42;;;;;;;3.65;1.40;;;17.80;93.20;;;;;;10503053;28;20265;-82
2023/07/22 00:52:44;;;;;;;2.28;1.40;;;17.50;94.10;;;;;;10515897;28;20251;-83
2023/07/22 00:57:47;;;;;;;2.90;1.50;;;17.60;94.90;;;;;;10509253;28;20612;-82
2023/07/22 01:02:50;;;;;;;3.97;1.60;;;17.40;96.00;;;;;;10502778;28;20237;-82
2023/07/22 01:07:53;;;;;;;2.08;1.52;;;17.30;96.10;;;;;;10505341;28;20266;-83
2023/07/22 01:12:55;;;;;;;1.58;1.42;;;17.10;97.30;;;;;;10537347;28;20545;-82
2023/07/22 01:18:01;;;;;;;1.77;1.25;;;16.90;98.20;;;;;;10504687;28;20298;-83
2023/07/22 01:23:04;;;;;;;2.00;1.42;;;17.00;97.50;;;;;;10492218;28;20673;-82
2023/07/22 01:28:10;;;;;;;2.63;1.33;;;17.40;95.90;;;;;;10482173;28;20205;-82
2023/07/22 01:33:13;;;;;;;1.30;1.20;;;17.30;96.60;;;;;;10532492;28;20233;-82
2023/07/22 01:38:16;;;;;;;2.10;1.90;;;17.30;96.20;;;;;;10512261;28;20656;-82
2023/07/22 01:43:18;;;;;;;1.80;1.35;;;17.40;96.10;;;;;;10515037;28;20257;-82
2023/07/22 01:48:22;;;;;;;1.48;1.20;;;17.40;95.40;;;;;;10510914;28;20268;-82
2023/07/22 01:53:25;;;;;;;1.83;1.45;;;17.30;95.30;;;;;;10525476;28;20678;-82
2023/07/22 01:58:27;;;;;;;2.20;1.52;;;17.40;94.60;;;;;;10499277;28;20650;-82
2023/07/22 02:03:31;;;;;;;2.33;1.35;;;17.40;94.60;;;;;;10474533;28;20655;-82
2023/07/22 02:08:35;;;;;;;1.17;1.08;;;17.20;95.20;;;;;;10504921;28;20263;-82
2023/07/22 02:13:38;;;;;;;1.40;1.13;;;17.20;95.10;;;;;;10517416;28;20608;-82
2023/07/22 02:18:41;;;;;;;1.65;1.38;;;16.70;96.30;;;;;;10500446;28;20720;-84
2023/07/22 02:23:44;;;;;;;1.80;1.70;;;16.50;97.20;;;;;;10507727;28;20284;-83
2023/07/22 02:28:46;;;;;;;1.48;1.35;;;16.50;98.00;;;;;;10490381;28;20664;-83
2023/07/22 02:33:49;;;;;;;1.67;1.45;;;16.20;98.40;;;;;;10503776;28;20279;-82
2023/07/22 02:38:52;;;;;;;1.30;1.20;;;15.80;99.80;;;;;;10488833;28;20249;-82
2023/07/22 02:43:54;;;;;;;2.75;1.88;;;15.70;99.90;;;;;;10490853;28;20656;-83
2023/07/22 02:48:58;;;;;;;1.50;1.40;;;15.50;99.90;;;;;;10508825;28;20225;-83
2023/07/22 02:54:01;;;;;;;2.83;1.60;;;15.50;99.90;;;;;;10509280;28;20226;-82
2023/07/22 02:59:04;;;;;;;1.27;1.17;;;15.50;99.90;;;;;;10487726;28;20234;-83
2023/07/22 03:04:06;;;;;;;2.38;1.30;;;15.50;99.90;;;;;;10505789;28;20252;-82
2023/07/22 03:09:10;;;;;;;2.15;1.95;;;15.20;99.90;;;;;;10512187;28;20233;-83
2023/07/22 03:14:13;;;;;;;2.05;1.83;;;15.50;99.90;;;;;;10492829;28;20233;-82
2023/07/22 03:19:16;;;;;;;2.95;2.30;;;15.50;99.90;;;;;;10496796;28;20225;-82
2023/07/22 03:24:18;;;;;;;3.78;2.22;;;15.80;99.90;;;;;;10499583;28;20237;-83
2023/07/22 03:29:24;;;;;;;3.08;2.78;;;15.90;99.90;;;;;;10513062;28;20274;-83
2023/07/22 03:34:27;;;;;;;2.30;2.10;;;16.10;99.90;;;;;;10455501;28;20226;-83
2023/07/22 03:39:30;;;;;;;7.85;2.80;;;16.20;99.90;;;;;;10488125;28;20673;-83
2023/07/22 03:44:33;;;;;;;2.97;2.78;;;16.40;99.90;;;;;;10527939;28;20264;-83
2023/07/22 03:49:35;;;;;;;2.40;2.15;;;16.60;99.60;;;;;;10510674;28;20263;-83
2023/07/22 03:54:38;;;;;;;2.58;2.38;;;16.70;99.10;;;;;;10502710;28;20309;-83
2023/07/22 03:59:40;;;;;;;3.00;2.70;;;16.70;98.90;;;;;;10454835;28;20233;-83
2023/07/22 04:04:43;;;;;;;9.65;2.90;;;16.80;98.70;;;;;;10489004;28;20237;-83
2023/07/22 04:09:46;;;;;;;3.38;2.08;;;16.80;99.00;;;;;;10520527;28;20640;-83
2023/07/22 04:14:48;;;;;;;1.45;1.35;;;16.60;99.80;;;;;;10507811;28;20314;-83
2023/07/22 04:19:52;;;;;;;2.40;1.85;;;17.10;99.00;;;;;;10480061;28;20229;-83
2023/07/22 04:24:54;;;;;;;4.43;2.83;;;17.50;98.10;;;;;;10481518;28;20214;-83
2023/07/22 04:29:57;;;;;;;4.50;2.97;;;18.00;96.50;;;;;;10477695;28;20226;-83
2023/07/22 04:34:59;;;;;;;3.60;3.30;;;18.10;95.80;;;;;;10482530;28;20241;-83
2023/07/22 04:40:06;;;;;;;4.38;2.97;;;17.80;96.70;;;;;;10508537;28;20678;-83
2023/07/22 04:45:10;;;;;;;2.50;2.30;;;18.20;95.40;;;;;;10527144;28;20265;-83
2023/07/22 04:50:13;;;;;;;5.57;2.90;;;18.60;94.00;;;;;;10517629;28;20302;-83
2023/07/22 04:55:16;;;;;;;4.80;2.72;;;18.80;93.50;;;;;;10517749;28;20245;-83
2023/07/22 05:00:18;;;;;;;5.32;3.20;;;18.80;92.90;;;;;;10520181;28;20417;-83
2023/07/22 05:05:21;;;;;;;4.15;3.70;;;19.00;92.50;;;;;;10529378;28;20265;-83
2023/07/22 05:10:24;;;;;;;4.85;3.83;;;18.90;92.60;;;;;;10504264;28;20242;-83
2023/07/22 05:15:27;;;;;;;1.20;1.10;;;19.00;92.80;;;;;;10495965;28;20254;-83
2023/07/22 05:20:29;;;;;;;2.92;1.65;;;19.40;90.20;;;;;;10514428;28;20260;-83
2023/07/22 05:25:32;;;;;;;1.45;1.35;;;19.70;87.90;;;;;;10493521;28;20653;-83
2023/07/22 05:30:35;;;;;;;4.13;2.45;;;20.00;84.40;;;;;;10494588;28;20685;-85
2023/07/22 05:35:38;;;;;;;2.30;1.80;;;20.30;81.90;;;;;;10500952;28;20258;-85
2023/07/22 05:40:40;;;;;;;0.80;0.80;;;20.60;78.80;;;;;;10493550;28;20259;-83
2023/07/22 05:45:43;;;;;;;1.35;1.25;;;20.80;74.70;;;;;;10509625;28;20327;-84
2023/07/22 05:50:45;;;;;;;1.20;1.10;;;21.20;70.50;;;;;;10476397;28;20237;-83
2023/07/22 05:55:48;;;;;;;2.72;1.60;;;21.30;68.60;;;;;;10493617;28;20253;-84
2023/07/22 06:00:51;;;;;;;1.52;1.35;;;21.20;68.60;;;;;;10481623;28;20221;-83
2023/07/22 06:05:54;;;;;;;1.83;1.67;;;21.40;66.40;;;;;;10503422;28;20680;-82
2023/07/22 06:10:56;;;;;;;0.70;0.70;;;21.70;63.60;;;;;;10475488;28;20229;-83
2023/07/22 06:15:59;;;;;;;1.48;1.38;;;21.90;60.90;;;;;;10532865;28;20691;-83
2023/07/22 06:21:02;;;;;;;1.38;1.27;;;22.00;59.70;;;;;;10510444;28;20419;-83
2023/07/22 06:26:04;;;;;;;3.05;1.70;;;22.10;57.70;;;;;;10476239;28;20281;-83
2023/07/22 06:31:07;;;;;;;1.35;1.10;;;22.10;56.60;;;;;;10500572;28;20353;-83
2023/07/22 06:36:10;;;;;;;1.20;1.10;;;22.20;54.90;;;;;;10512929;28;20298;-82
2023/07/22 06:41:13;;;;;;;1.33;1.10;;;22.50;53.10;;;;;;10533506;28;20229;-83
2023/07/22 06:46:15;;;;;;;1.75;1.52;;;22.50;52.70;;;;;;10513238;28;20314;-83
2023/07/22 06:51:18;;;;;;;2.25;1.23;;;22.70;51.60;;;;;;10533170;28;20228;-83
2023/07/22 06:56:20;;;;;;;1.10;1.00;;;22.80;50.10;;;;;;10514939;28;20664;-83
2023/07/22 07:01:23;;;;;;;2.05;1.30;;;23.10;48.50;;;;;;10523646;28;20230;-82
2023/07/22 07:06:25;;;;;;;1.40;1.23;;;23.10;47.40;;;;;;10510354;28;20229;-83
2023/07/22 07:11:31;;;;;;;1.92;1.65;;;23.20;46.40;;;;;;10513432;28;20230;-83
2023/07/22 07:16:35;;;;;;;1.45;1.35;;;23.50;44.60;;;;;;10492154;28;20310;-83
2023/07/22 07:21:38;;;;;;;1.42;1.33;;;23.50;44.20;;;;;;10531912;28;20202;-82
2023/07/22 07:26:41;;;;;;;2.75;2.35;;;23.70;43.10;;;;;;10532436;28;20229;-83
2023/07/22 07:31:43;;;;;;;1.88;1.67;;;23.50;43.90;;;;;;10526579;28;20229;-83
2023/07/22 07:36:46;;;;;;;7.43;2.63;;;23.40;43.80;;;;;;10512613;28;20248;-84
2023/07/22 07:41:48;;;;;;;1.73;1.63;;;23.70;41.90;;;;;;10531112;28;20288;-83
2023/07/22 07:46:51;;;;;;;3.65;1.70;;;23.60;41.20;;;;;;10516372;28;20256;-83
2023/07/22 07:51:54;;;;;;;1.88;1.75;;;23.40;41.00;;;;;;10519346;28;20263;-83
2023/07/22 07:56:56;;;;;;;1.63;1.52;;;23.00;43.00;;;;;;10521897;28;20249;-83
2023/07/22 08:01:59;;;;;;;2.83;1.70;;;23.30;42.00;;;;;;10539883;28;20318;-84
2023/07/22 08:07:04;;;;;;;2.83;1.98;;;23.50;40.40;;;;;;10538927;28;20672;-83
2023/07/22 08:12:08;;;;;;;2.35;1.77;;;23.50;40.30;;;;;;10538844;28;20193;-83
2023/07/22 08:17:10;;;;;;;3.70;1.60;;;23.50;40.10;;;;;;10511600;28;20257;-84
2023/07/22 08:22:13;;;;;;;1.60;1.50;;;23.60;39.30;;;;;;10481162;28;20653;-82
2023/07/22 08:27:15;;;;;;;1.80;1.30;;;23.30;39.40;;;;;;10538209;28;20237;-85
2023/07/22 08:32:27;;;;;;;1.75;1.58;;;23.70;38.30;;;;;;10527651;28;20229;-84
2023/07/22 08:37:32;;;;;;;1.50;1.40;;;23.70;36.60;;;;;;10530890;28;20258;-84
2023/07/22 08:42:36;;;;;;;1.73;1.60;;;23.70;37.10;;;;;;10488911;28;20611;-84
2023/07/22 08:47:43;;;;;;;2.45;1.80;;;23.30;35.20;;;;;;10498291;28;20226;-84
2023/07/22 08:52:46;;;;;;;4.10;2.03;;;22.60;38.40;;;;;;10518452;28;20294;-85
2023/07/22 08:57:51;;;;;;;2.17;2.03;;;22.60;40.50;;;;;;10531808;28;20257;-86
2023/07/22 09:02:54;;;;;;;1.70;1.60;;;21.80;41.20;;;;;;10520324;28;20287;-85
2023/07/22 09:07:57;;;;;;;2.28;2.05;;;21.80;43.70;;;;;;10495863;28;20684;-84
2023/07/22 09:13:01;;;;;;;2.00;1.77;;;21.50;44.80;;;;;;10497304;28;20598;-85
2023/07/22 09:18:04;;;;;;;1.92;1.73;;;20.40;42.70;;;;;;10513685;28;20320;-86
2023/07/22 09:23:07;;;;;;;2.05;1.92;;;20.50;47.90;;;;;;10529447;28;20251;-85
2023/07/22 09:28:15;;;;;;;2.92;1.52;;;20.60;51.00;;;;;;10480437;28;20249;-84
2023/07/22 09:33:22;;;;;;;1.90;1.42;;;21.40;46.40;;;;;;10494322;28;20230;-83
2023/07/22 09:38:25;;;;;;;2.13;1.90;;;22.10;43.60;;;;;;10509436;28;20253;-85
2023/07/22 09:43:30;;;;;;;2.05;1.63;;;22.10;40.90;;;;;;10488761;28;20250;-85
2023/07/22 09:48:40;;;;;;;1.70;1.60;;;21.80;36.90;;;;;;10510574;28;20206;-85
2023/07/22 09:53:47;;;;;;;2.22;1.85;;;21.80;39.10;;;;;;10530534;28;20683;-84
2023/07/22 09:58:51;;;;;;;8.13;1.40;;;22.70;29.10;;;;;;10532120;28;20252;-84
2023/07/22 10:03:56;;;;;;;2.03;1.48;;;23.10;27.70;;;;;;10535052;28;20637;-84
2023/07/22 10:09:03;;;;;;;1.20;1.10;;;23.20;27.80;;;;;;10534483;28;20233;-83
2023/07/22 10:14:06;;;;;;;1.60;1.33;;;22.80;29.30;;;;;;10480380;28;20251;-84
2023/07/22 10:19:09;;;;;;;2.15;1.45;;;23.00;29.00;;;;;;10506228;28;20257;-84
2023/07/22 10:24:13;;;;;;;1.48;1.38;;;23.00;27.40;;;;;;10533594;28;20241;-83
2023/07/22 10:29:16;;;;;;;2.90;1.48;;;22.80;26.30;;;;;;10515169;28;20752;-84
2023/07/22 10:34:21;;;;;;;1.35;0.98;;;22.70;25.60;;;;;;10513881;28;20262;-84
2023/07/22 10:39:30;;;;;;;1.90;1.70;;;22.80;23.80;;;;;;10488245;28;20257;-89
2023/07/22 10:44:37;;;;;;;2.55;2.35;;;22.90;23.40;;;;;;10515222;28;20265;-87
2023/07/22 10:49:48;;;;;;;4.55;2.10;;;23.00;22.50;;;;;;10517324;28;20761;-87
2023/07/22 10:54:51;;;;;;;3.00;2.00;;;22.70;23.40;;;;;;10491026;28;20477;-87
2023/07/22 10:59:55;;;;;;;1.70;1.48;;;22.60;25.50;;;;;;10491904;28;20299;-87
2023/07/22 11:04:59;;;;;;;3.33;1.70;;;22.60;25.40;;;;;;10474554;28;20622;-86
2023/07/22 11:10:16;;;;;;;2.45;1.55;;;22.90;23.70;;;;;;10491828;28;20295;-88
2023/07/22 11:15:19;;;;;;;3.70;1.85;;;23.10;22.70;;;;;;10499959;28;20768;-86
2023/07/22 11:20:23;;;;;;;2.97;1.88;;;23.20;18.80;;;;;;10512545;28;20249;-86
2023/07/22 11:25:26;;;;;;;2.00;1.50;;;23.20;17.80;;;;;;10525269;28;20608;-86
2023/07/22 11:30:29;;;;;;;1.42;0.93;;;23.00;20.40;;;;;;10527971;28;20307;-87
2023/07/22 11:35:32;;;;;;;1.98;1.50;;;22.80;21.20;;;;;;10495982;28;20557;-88
2023/07/22 11:40:35;;;;;;;4.93;1.92;;;22.70;21.20;;;;;;10491439;28;20253;-86
2023/07/22 11:45:41;;;;;;;3.88;1.98;;;22.80;19.00;;;;;;10491129;28;20660;-88
2023/07/22 11:50:44;;;;;;;4.10;2.63;;;22.60;19.70;;;;;;10495286;28;20574;-88
2023/07/22 11:55:47;;;;;;;4.25;2.97;;;22.50;19.50;;;;;;10507291;28;20600;-88
2023/07/22 12:01:11;;;;;;;3.53;2.45;;;22.30;21.20;;;;;;10532663;28;20330;-89
2023/07/22 12:06:14;;;;;;;4.80;2.15;;;22.70;21.10;;;;;;10531653;28;20968;-90
2023/07/22 12:11:22;;;;;;;3.70;2.08;;;22.90;25.00;;;;;;10497975;28;20270;-88
2023/07/22 12:16:24;;;;;;;2.10;1.52;;;23.40;28.30;;;;;;10532868;28;20470;-88
2023/07/22 12:21:27;;;;;;;4.47;2.38;;;23.90;25.50;;;;;;10532915;28;20221;-89
2023/07/22 12:26:30;;;;;;;3.60;2.00;;;24.10;27.50;;;;;;10517788;28;20619;-88
2023/07/22 12:31:33;;;;;;;1.70;1.60;;;24.30;26.10;;;;;;10521918;28;20279;-89
2023/07/22 12:36:36;;;;;;;5.03;2.03;;;24.30;26.90;;;;;;10521611;28;20217;-89
2023/07/22 12:41:38;;;;;;;2.67;1.55;;;24.40;26.30;;;;;;10483156;28;20214;-88
2023/07/22 12:46:42;;;;;;;2.75;1.75;;;24.40;26.20;;;;;;10529401;28;20346;-86
2023/07/22 12:51:45;;;;;;;2.67;2.22;;;24.40;28.20;;;;;;10533784;28;20245;-88
2023/07/22 12:56:47;;;;;;;4.43;1.63;;;24.20;24.20;;;;;;10484774;28;20299;-88
2023/07/22 13:01:50;;;;;;;2.42;2.22;;;24.10;29.70;;;;;;10508487;28;20190;-88
2023/07/22 13:06:52;;;;;;;2.30;2.10;;;24.20;30.00;;;;;;10537967;28;20236;-89
2023/07/22 13:11:55;;;;;;;2.85;2.28;;;24.10;27.40;;;;;;10533749;28;20206;-91
2023/07/22 13:16:57;;;;;;;2.58;2.17;;;23.50;20.90;;;;;;10513993;28;20253;-89
2023/07/22 13:22:00;;;;;;;3.80;2.70;;;23.60;27.40;;;;;;10496450;28;20743;-91
2023/07/22 13:27:04;;;;;;;3.03;2.08;;;23.60;28.90;;;;;;10496245;28;20279;-90
2023/07/22 13:32:07;;;;;;;3.15;1.98;;;24.00;32.60;;;;;;10135056;28;9999886;-89
2023/07/22 13:37:09;;;;;;;2.13;1.50;;;24.00;32.50;;;;;;10515992;28;20241;-90
2023/07/22 13:42:12;;;;;;;2.35;1.77;;;23.80;32.20;;;;;;10516416;28;20230;-88
2023/07/22 13:47:14;;;;;;;3.80;2.20;;;24.00;29.90;;;;;;10510482;28;20261;-89
2023/07/22 13:52:17;;;;;;;3.47;2.58;;;23.90;31.30;;;;;;10506242;28;20237;-89
2023/07/22 13:57:19;;;;;;;2.15;1.90;;;23.90;33.20;;;;;;10510473;28;20253;-90
2023/07/22 14:02:22;;;;;;;2.38;2.10;;;23.80;25.90;;;;;;10497537;28;20897;-89
2023/07/22 14:07:24;;;;;;;2.00;1.55;;;23.80;23.60;;;;;;10497667;28;20237;-89
2023/07/22 14:12:27;;;;;;;2.67;2.10;;;24.20;36.00;;;;;;10532249;28;20233;-89
2023/07/22 14:17:32;;;;;;;3.13;2.20;;;24.20;22.40;;;;;;10532561;28;20252;-89
2023/07/22 14:22:34;;;;;;;2.97;2.13;;;24.20;29.70;;;;;;10514206;28;20308;-89
2023/07/22 14:27:41;;;;;;;4.40;2.50;;;24.20;33.90;;;;;;10513005;28;20263;-89
2023/07/22 14:32:44;;;;;;;1.83;1.73;;;24.40;35.60;;;;;;10513420;28;20245;-89
2023/07/22 14:37:46;;;;;;;4.63;2.20;;;24.40;38.50;;;;;;10531913;28;20237;-86
2023/07/22 14:42:49;;;;;;;2.92;2.28;;;24.40;31.30;;;;;;10534007;28;20252;-87
2023/07/22 14:47:51;;;;;;;3.75;1.77;;;24.50;29.00;;;;;;10505775;28;20801;-87
2023/07/22 14:52:54;;;;;;;6.00;1.95;;;24.40;29.80;;;;;;10497348;28;20668;-86
2023/07/22 14:57:57;;;;;;;2.95;2.25;;;24.60;29.10;;;;;;10506282;28;20241;-84
2023/07/22 15:02:59;;;;;;;2.30;1.90;;;24.30;25.90;;;;;;10508742;28;20595;-86
2023/07/22 15:08:02;;;;;;;1.80;1.30;;;24.20;25.10;;;;;;10495044;28;20275;-87
2023/07/22 15:13:05;;;;;;;1.45;0.98;;;24.00;28.60;;;;;;10490626;28;20308;-86
2023/07/22 15:18:07;;;;;;;3.55;1.75;;;24.30;27.10;;;;;;10509239;28;20294;-86
2023/07/22 15:23:10;;;;;;;2.90;2.25;;;24.30;20.90;;;;;;10477364;28;20242;-84
2023/07/22 15:28:12;;;;;;;2.95;1.90;;;23.80;12.60;;;;;;10510114;28;20709;-85
2023/07/22 15:33:16;;;;;;;2.65;1.90;;;23.80;18.40;;;;;;10529113;28;20255;-86
2023/07/22 15:38:18;;;;;;;4.20;2.72;;;23.80;13.40;;;;;;10507062;28;20256;-84
2023/07/22 15:43:21;;;;;;;3.20;1.95;;;23.50;12.20;;;;;;10477953;28;20334;-85
2023/07/22 15:48:24;;;;;;;3.00;1.80;;;23.40;13.10;;;;;;10507879;28;20233;-85
2023/07/22 15:53:26;;;;;;;5.40;2.58;;;23.40;13.80;;;;;;10522155;28;20290;-85
2023/07/22 15:58:29;;;;;;;2.58;1.73;;;22.90;13.30;;;;;;10510688;28;20256;-85
2023/07/22 16:03:32;;;;;;;3.55;2.15;;;22.90;16.00;;;;;;10531433;28;20251;-83
2023/07/22 16:08:34;;;;;;;1.85;1.50;;;23.00;15.80;;;;;;10532228;28;20285;-86
2023/07/22 16:13:37;;;;;;;2.78;1.75;;;23.10;20.00;;;;;;10511908;28;20233;-87
2023/07/22 16:18:39;;;;;;;2.33;2.08;;;23.20;15.70;;;;;;10523305;28;20314;-86
2023/07/22 16:23:42;;;;;;;2.42;1.48;;;22.90;12.20;;;;;;10537082;28;20229;-84
2023/07/22 16:28:45;;;;;;;1.52;1.10;;;23.10;22.90;;;;;;10539241;28;20287;-88
2023/07/22 16:33:48;;;;;;;2.20;1.67;;;23.50;19.70;;;;;;10521498;28;20238;-87
2023/07/22 16:38:50;;;;;;;2.60;2.10;;;23.60;15.70;;;;;;10525102;28;20245;-87
2023/07/22 16:43:53;;;;;;;2.20;1.45;;;23.50;12.60;;;;;;10517181;28;20257;-89
2023/07/22 16:48:55;;;;;;;2.55;1.90;;;23.60;13.90;;;;;;10517092;28;20971;-87
2023/07/22 16:53:58;;;;;;;2.35;1.50;;;23.60;12.40;;;;;;10537825;28;20233;-87
2023/07/22 16:59:01;;;;;;;3.38;2.33;;;23.50;14.20;;;;;;10537497;28;20314;-87
2023/07/22 17:04:05;;;;;;;3.05;1.90;;;23.70;14.20;;;;;;10518019;28;20225;-88
2023/07/22 17:09:07;;;;;;;2.95;2.35;;;23.80;13.90;;;;;;10532807;28;20242;-87
2023/07/22 17:14:10;;;;;;;2.15;1.70;;;23.70;14.90;;;;;;10524141;28;20675;-88
2023/07/22 17:19:12;;;;;;;3.13;2.72;;;23.70;13.80;;;;;;10505766;28;20250;-87
2023/07/22 17:24:19;;;;;;;2.47;2.25;;;23.20;12.50;;;;;;10534323;28;20198;-88
2023/07/22 17:29:23;;;;;;;4.38;2.05;;;23.10;12.40;;;;;;10503721;28;20241;-88
2023/07/22 17:34:25;;;;;;;2.92;1.65;;;22.90;12.90;;;;;;10494187;28;20288;-91
2023/07/22 17:39:29;;;;;;;3.22;2.08;;;23.10;15.70;;;;;;10518152;28;20290;-86
2023/07/22 17:44:32;;;;;;;3.25;2.00;;;23.00;15.10;;;;;;10498513;28;20261;-87
2023/07/22 17:49:34;;;;;;;3.05;2.25;;;22.80;13.90;;;;;;10494207;28;20627;-87
2023/07/22 17:54:37;;;;;;;5.90;2.60;;;22.80;15.40;;;;;;10495015;28;20280;-87
2023/07/22 17:59:41;;;;;;;2.85;2.05;;;22.60;14.80;;;;;;10520786;28;20276;-88
2023/07/22 18:04:43;;;;;;;2.53;1.80;;;22.60;17.00;;;;;;10513438;28;20293;-88
2023/07/22 18:09:45;;;;;;;3.38;2.40;;;22.30;16.60;;;;;;10534700;28;20630;-86
2023/07/22 18:14:48;;;;;;;4.25;2.17;;;22.10;15.00;;;;;;10494425;28;20275;-89
2023/07/22 18:19:51;;;;;;;4.30;2.38;;;22.10;17.10;;;;;;10532834;28;20279;-89
2023/07/22 18:24:53;;;;;;;4.88;2.55;;;21.70;16.00;;;;;;10505277;28;20218;-88
2023/07/22 18:29:58;;;;;;;3.47;2.90;;;21.50;16.30;;;;;;10151801;28;10000001;-90
2023/07/22 18:35:01;;;;;;;3.63;2.92;;;21.00;17.30;;;;;;10473154;28;20256;-89
2023/07/22 18:40:04;;;;;;;3.67;2.30;;;20.50;18.20;;;;;;10483398;28;20272;-89
2023/07/22 18:45:07;;;;;;;4.85;3.45;;;20.20;19.60;;;;;;10472586;28;20262;-88
2023/07/22 18:50:10;;;;;;;4.22;3.03;;;20.00;20.20;;;;;;10494492;28;20230;-88
2023/07/22 18:55:13;;;;;;;6.80;2.90;;;19.70;20.90;;;;;;10465507;28;20744;-90
2023/07/22 19:00:16;;;;;;;3.65;2.70;;;19.50;22.50;;;;;;10488631;28;20257;-88
2023/07/22 19:05:19;;;;;;;4.25;2.75;;;19.40;23.20;;;;;;10488392;28;20233;-89
2023/07/22 19:10:21;;;;;;;4.00;2.63;;;19.40;24.70;;;;;;10489246;28;20755;-88
2023/07/22 19:15:24;;;;;;;2.38;2.17;;;19.30;26.10;;;;;;10504851;28;20762;-88
2023/07/22 19:20:26;;;;;;;3.60;2.80;;;19.10;25.80;;;;;;10513221;28;20241;-90
2023/07/22 19:25:30;;;;;;;5.10;2.72;;;18.80;27.00;;;;;;10527051;28;20230;-89
2023/07/22 19:30:37;;;;;;;5.28;3.10;;;18.10;29.70;;;;;;10473252;28;20234;-88
2023/07/22 19:35:39;;;;;;;4.20;3.55;;;17.40;33.20;;;;;;10518546;28;20222;-91
2023/07/22 19:40:42;;;;;;;5.85;3.75;;;16.90;36.20;;;;;;10518769;28;20249;-88
2023/07/22 19:45:44;;;;;;;5.55;3.67;;;16.60;40.30;;;;;;10543021;28;20256;-88
2023/07/22 19:50:53;;;;;;;4.45;3.65;;;16.30;44.30;;;;;;10529252;28;20282;-88
2023/07/22 19:55:57;;;;;;;3.85;3.45;;;16.50;41.20;;;;;;10542162;28;20321;-88
2023/07/22 20:01:01;;;;;;;4.50;3.58;;;16.80;39.90;;;;;;10511486;22;20274;-88
2023/07/22 20:06:04;;;;;;;6.95;3.22;;;16.80;40.90;;;;;;10452872;28;20291;-87
2023/07/22 20:11:07;;;;;;;10.48;4.30;;;16.90;41.80;;;;;;10480231;28;20206;-87
2023/07/22 20:16:10;;;;;;;8.55;3.55;;;17.00;44.70;;;;;;10470273;28;20199;-87
2023/07/22 20:21:13;;;;;;;6.18;3.05;;;17.30;50.30;;;;;;10438381;28;20715;-87
2023/07/22 20:26:15;;;;;;;4.85;4.20;;;17.50;53.50;;;;;;10438131;28;20210;-88
2023/07/22 20:31:18;;;;;;;4.43;3.85;;;17.70;52.40;;;;;;10451857;28;20578;-87
2023/07/22 20:36:20;;;;;;;5.18;3.38;;;17.70;53.40;;;;;;10480981;28;20206;-87
2023/07/22 20:41:23;;;;;;;5.75;4.22;;;17.60;55.40;;;;;;10438071;28;20250;-87
2023/07/22 20:46:25;;;;;;;4.95;3.83;;;17.50;53.70;;;;;;10438528;28;20258;-86
2023/07/22 20:51:28;;;;;;;3.90;2.97;;;17.40;55.20;;;;;;10456304;28;20649;-88
2023/07/22 20:56:31;;;;;;;3.55;3.25;;;17.40;56.70;;;;;;10473000;28;20226;-86
2023/07/22 21:01:34;;;;;;;4.47;3.97;;;17.50;58.10;;;;;;10465901;28;20271;-86
2023/07/22 21:06:37;;;;;;;4.18;3.45;;;17.50;56.40;;;;;;10459834;28;20229;-86
2023/07/22 21:11:39;;;;;;;6.32;4.10;;;17.20;54.10;;;;;;10474143;28;20792;-87
2023/07/22 21:16:42;;;;;;;6.13;4.07;;;16.70;56.60;;;;;;10462476;28;20230;-87
2023/07/22 21:21:46;;;;;;;5.55;3.90;;;16.50;60.30;;;;;;10483213;28;20667;-86
2023/07/22 21:26:49;;;;;;;8.60;3.88;;;16.30;63.40;;;;;;10481296;28;20234;-86
2023/07/22 21:31:51;;;;;;;6.80;4.32;;;16.20;66.90;;;;;;10434864;28;20210;-86
2023/07/22 21:36:54;;;;;;;5.30;4.10;;;15.90;71.40;;;;;;10463327;28;20291;-86
2023/07/22 21:41:58;;;;;;;4.50;3.88;;;15.80;73.60;;;;;;10464889;28;20257;-86
2023/07/22 21:47:01;;;;;;;10.02;4.25;;;15.60;80.60;;;;;;10475638;28;20876;-86
2023/07/22 21:52:04;;;;;;;4.13;3.63;;;15.50;84.30;;;;;;10446743;28;20854;-86
2023/07/22 21:57:07;;;;;;;6.32;4.68;;;15.50;89.50;;;;;;10452261;28;20293;-85
2023/07/22 22:02:12;;;;;;;8.32;4.50;;;15.30;89.50;;;;;;10474383;28;20651;-85
2023/07/22 22:07:14;;;;;;;7.03;4.82;;;15.20;91.20;;;;;;10453572;28;20284;-85
2023/07/22 22:12:17;;;;;;;7.80;5.32;;;15.20;92.00;;;;;;10442528;28;20280;-86
2023/07/22 22:17:20;;;;;;;7.22;4.65;;;14.60;91.50;;;;;;10460630;28;20689;-86
2023/07/22 22:22:23;;;;;;;7.82;5.28;;;14.30;93.60;;;;;;10450655;28;20254;-85
2023/07/22 22:27:26;;;;;;;9.38;5.63;;;14.50;94.40;;;;;;10452301;28;20246;-85
2023/07/22 22:32:28;;;;;;;5.75;4.65;;;14.40;95.00;;;;;;10464016;28;20248;-85
2023/07/22 22:37:31;;;;;;;8.90;5.85;;;14.50;95.80;;;;;;10449680;28;20757;-85
2023/07/22 22:42:42;;;;;;;7.78;5.78;;;14.50;95.60;;;;;;10428934;28;20261;-85
2023/07/22 22:48:06;;;;;;;9.73;5.55;;;14.40;95.70;;;;;;10453448;28;20253;-85
2023/07/22 22:53:08;;;;;;;10.88;5.63;;;14.40;96.00;;;;;;10469465;28;20569;-86
2023/07/22 22:58:11;;;;;;;7.03;4.88;;;14.20;96.80;;;;;;10451962;28;20311;-86
2023/07/22 23:03:14;;;;;;;8.10;5.45;;;14.20;97.80;;;;;;10470972;28;20253;-86
2023/07/22 23:08:16;;;;;;;9.25;4.85;;;14.10;97.70;;;;;;10470398;28;20298;-86
2023/07/22 23:13:19;;;;;;;8.93;4.68;;;14.10;99.00;;;;;;10483363;28;20238;-86
2023/07/22 23:18:22;;;;;;;7.38;5.40;;;14.00;98.40;;;;;;10461126;28;20638;-86
2023/07/22 23:23:24;;;;;;;10.85;4.53;;;13.90;98.50;;;;;;10450533;28;20253;-86
2023/07/22 23:28:27;;;;;;;10.27;5.35;;;14.20;99.90;;;;;;10435513;28;20230;-86
2023/07/22 23:33:31;;;;;;;12.40;5.65;;;14.10;97.80;;;;;;10452631;28;20230;-86
2023/07/22 23:38:34;;;;;;;9.10;4.78;;;14.20;98.60;;;;;;10453395;28;20290;-86
2023/07/22 23:43:36;;;;;;;9.02;5.35;;;14.40;99.40;;;;;;10456533;28;20300;-86
2023/07/22 23:48:39;;;;;;;10.00;5.25;;;14.10;97.70;;;;;;10445517;28;20222;-86
2023/07/22 23:53:41;;;;;;;7.00;5.28;;;14.20;98.80;;;;;;10430312;28;20242;-86
2023/07/22 23:58:44;;;;;;;12.10;6.05;;;14.10;98.50;;;;;;10448694;28;20270;-86
